sensor_id;sensor_type;location;lat;lon;timestamp;P1;durP1;ratioP1;P2;durP2;ratioP2
47021;SDS011;32779;52.264;6.154;2024-03-06T00:01:29;44.78;;;27.67;;
47021;SDS011;32779;52.264;6.154;2024-03-06T00:03:55;46.35;;;28.77;;
47021;SDS011;32779;52.264;6.154;2024-03-06T00:06:20;51.03;;;30.35;;
47021;SDS011;32779;52.264;6.154;2024-03-06T00:08:46;43.08;;;29.38;;
47021;SDS011;32779;52.264;6.154;2024-03-06T00:11:11;48.28;;;28.77;;
47021;SDS011;32779;52.264;6.154;2024-03-06T00:13:37;44.00;;;29.58;;
47021;SDS011;32779;52.264;6.154;2024-03-06T00:16:02;46.00;;;28.88;;
47021;SDS011;32779;52.264;6.154;2024-03-06T00:18:29;51.85;;;31.67;;
47021;SDS011;32779;52.264;6.154;2024-03-06T00:20:54;48.15;;;30.42;;
47021;SDS011;32779;52.264;6.154;2024-03-06T00:23:20;48.40;;;31.95;;
47021;SDS011;32779;52.264;6.154;2024-03-06T00:25:45;46.63;;;30.70;;
47021;SDS011;32779;52.264;6.154;2024-03-06T00:28:11;47.60;;;30.50;;
47021;SDS011;32779;52.264;6.154;2024-03-06T00:30:37;48.58;;;29.50;;
47021;SDS011;32779;52.264;6.154;2024-03-06T00:33:02;47.90;;;31.13;;
47021;SDS011;32779;52.264;6.154;2024-03-06T00:35:28;49.17;;;30.00;;
47021;SDS011;32779;52.264;6.154;2024-03-06T00:37:54;45.45;;;30.38;;
47021;SDS011;32779;52.264;6.154;2024-03-06T00:40:19;47.45;;;30.90;;
47021;SDS011;32779;52.264;6.154;2024-03-06T00:42:45;50.63;;;29.70;;
47021;SDS011;32779;52.264;6.154;2024-03-06T00:45:11;49.25;;;30.15;;
47021;SDS011;32779;52.264;6.154;2024-03-06T00:47:36;44.08;;;27.92;;
47021;SDS011;32779;52.264;6.154;2024-03-06T00:50:02;45.67;;;29.80;;
47021;SDS011;32779;52.264;6.154;2024-03-06T00:52:32;46.00;;;29.88;;
47021;SDS011;32779;52.264;6.154;2024-03-06T00:54:58;44.95;;;27.80;;
47021;SDS011;32779;52.264;6.154;2024-03-06T00:57:24;48.67;;;31.05;;
47021;SDS011;32779;52.264;6.154;2024-03-06T00:59:49;51.83;;;30.45;;
47021;SDS011;32779;52.264;6.154;2024-03-06T01:02:15;49.22;;;29.85;;
47021;SDS011;32779;52.264;6.154;2024-03-06T01:04:40;47.42;;;30.48;;
47021;SDS011;32779;52.264;6.154;2024-03-06T01:07:06;47.42;;;30.20;;
47021;SDS011;32779;52.264;6.154;2024-03-06T01:09:31;44.70;;;27.75;;
47021;SDS011;32779;52.264;6.154;2024-03-06T01:11:57;47.05;;;29.25;;
47021;SDS011;32779;52.264;6.154;2024-03-06T01:14:23;50.88;;;31.42;;
47021;SDS011;32779;52.264;6.154;2024-03-06T01:16:48;48.95;;;29.80;;
47021;SDS011;32779;52.264;6.154;2024-03-06T01:19:14;45.28;;;29.17;;
47021;SDS011;32779;52.264;6.154;2024-03-06T01:21:39;50.63;;;30.15;;
47021;SDS011;32779;52.264;6.154;2024-03-06T01:26:31;48.45;;;29.20;;
47021;SDS011;32779;52.264;6.154;2024-03-06T01:28:57;49.40;;;30.88;;
47021;SDS011;32779;52.264;6.154;2024-03-06T01:31:22;51.17;;;30.50;;
47021;SDS011;32779;52.264;6.154;2024-03-06T01:33:48;51.70;;;31.23;;
47021;SDS011;32779;52.264;6.154;2024-03-06T01:36:13;51.58;;;29.67;;
47021;SDS011;32779;52.264;6.154;2024-03-06T01:38:39;49.22;;;29.25;;
47021;SDS011;32779;52.264;6.154;2024-03-06T01:41:05;47.53;;;29.65;;
47021;SDS011;32779;52.264;6.154;2024-03-06T01:43:36;45.03;;;29.02;;
47021;SDS011;32779;52.264;6.154;2024-03-06T01:46:03;48.83;;;29.67;;
47021;SDS011;32779;52.264;6.154;2024-03-06T01:48:28;43.85;;;27.95;;
47021;SDS011;32779;52.264;6.154;2024-03-06T01:50:56;51.65;;;30.52;;
47021;SDS011;32779;52.264;6.154;2024-03-06T01:53:24;46.53;;;29.05;;
47021;SDS011;32779;52.264;6.154;2024-03-06T01:55:52;49.85;;;30.73;;
47021;SDS011;32779;52.264;6.154;2024-03-06T01:58:17;49.88;;;29.83;;
47021;SDS011;32779;52.264;6.154;2024-03-06T02:00:46;51.22;;;30.95;;
47021;SDS011;32779;52.264;6.154;2024-03-06T02:03:12;50.42;;;30.52;;
47021;SDS011;32779;52.264;6.154;2024-03-06T02:05:37;53.28;;;31.77;;
47021;SDS011;32779;52.264;6.154;2024-03-06T02:08:04;48.60;;;29.92;;
47021;SDS011;32779;52.264;6.154;2024-03-06T02:10:30;53.47;;;30.33;;
47021;SDS011;32779;52.264;6.154;2024-03-06T02:12:56;48.03;;;30.80;;
47021;SDS011;32779;52.264;6.154;2024-03-06T02:15:22;49.75;;;29.85;;
47021;SDS011;32779;52.264;6.154;2024-03-06T02:17:48;46.83;;;30.58;;
47021;SDS011;32779;52.264;6.154;2024-03-06T02:20:14;48.85;;;31.45;;
47021;SDS011;32779;52.264;6.154;2024-03-06T02:22:41;52.50;;;32.33;;
47021;SDS011;32779;52.264;6.154;2024-03-06T02:25:06;50.35;;;32.50;;
47021;SDS011;32779;52.264;6.154;2024-03-06T02:27:32;51.60;;;31.65;;
47021;SDS011;32779;52.264;6.154;2024-03-06T02:29:58;52.28;;;31.92;;
47021;SDS011;32779;52.264;6.154;2024-03-06T02:32:23;49.97;;;30.83;;
47021;SDS011;32779;52.264;6.154;2024-03-06T02:34:50;54.15;;;31.15;;
47021;SDS011;32779;52.264;6.154;2024-03-06T02:37:16;50.63;;;31.48;;
47021;SDS011;32779;52.264;6.154;2024-03-06T02:39:41;53.85;;;32.08;;
47021;SDS011;32779;52.264;6.154;2024-03-06T02:42:07;49.72;;;32.42;;
47021;SDS011;32779;52.264;6.154;2024-03-06T02:44:32;45.88;;;29.23;;
47021;SDS011;32779;52.264;6.154;2024-03-06T02:46:58;48.80;;;32.58;;
47021;SDS011;32779;52.264;6.154;2024-03-06T02:49:24;48.15;;;31.25;;
47021;SDS011;32779;52.264;6.154;2024-03-06T02:51:50;46.10;;;31.08;;
47021;SDS011;32779;52.264;6.154;2024-03-06T02:54:16;49.40;;;30.58;;
47021;SDS011;32779;52.264;6.154;2024-03-06T02:56:42;50.25;;;31.05;;
47021;SDS011;32779;52.264;6.154;2024-03-06T02:59:08;54.78;;;31.67;;
47021;SDS011;32779;52.264;6.154;2024-03-06T03:01:34;51.58;;;32.63;;
47021;SDS011;32779;52.264;6.154;2024-03-06T03:03:59;54.72;;;32.67;;
47021;SDS011;32779;52.264;6.154;2024-03-06T03:06:25;54.33;;;34.35;;
47021;SDS011;32779;52.264;6.154;2024-03-06T03:08:50;45.08;;;29.15;;
47021;SDS011;32779;52.264;6.154;2024-03-06T03:11:16;51.67;;;31.33;;
47021;SDS011;32779;52.264;6.154;2024-03-06T03:13:42;47.70;;;30.33;;
47021;SDS011;32779;52.264;6.154;2024-03-06T03:16:18;49.53;;;31.35;;
47021;SDS011;32779;52.264;6.154;2024-03-06T03:18:45;47.70;;;31.20;;
47021;SDS011;32779;52.264;6.154;2024-03-06T03:21:10;51.30;;;31.42;;
47021;SDS011;32779;52.264;6.154;2024-03-06T03:23:38;50.13;;;31.73;;
47021;SDS011;32779;52.264;6.154;2024-03-06T03:28:30;46.97;;;29.48;;
47021;SDS011;32779;52.264;6.154;2024-03-06T03:30:56;51.17;;;32.10;;
47021;SDS011;32779;52.264;6.154;2024-03-06T03:33:21;50.00;;;31.05;;
47021;SDS011;32779;52.264;6.154;2024-03-06T03:35:47;53.00;;;32.33;;
47021;SDS011;32779;52.264;6.154;2024-03-06T03:38:13;53.20;;;31.35;;
47021;SDS011;32779;52.264;6.154;2024-03-06T03:40:39;53.67;;;32.78;;
47021;SDS011;32779;52.264;6.154;2024-03-06T03:43:04;50.28;;;31.92;;
47021;SDS011;32779;52.264;6.154;2024-03-06T03:45:33;49.95;;;31.02;;
47021;SDS011;32779;52.264;6.154;2024-03-06T03:48:00;46.72;;;30.63;;
47021;SDS011;32779;52.264;6.154;2024-03-06T03:50:27;49.03;;;31.30;;
47021;SDS011;32779;52.264;6.154;2024-03-06T03:52:54;50.80;;;31.25;;
47021;SDS011;32779;52.264;6.154;2024-03-06T03:55:22;50.90;;;32.90;;
47021;SDS011;32779;52.264;6.154;2024-03-06T03:57:49;45.97;;;29.40;;
47021;SDS011;32779;52.264;6.154;2024-03-06T04:00:14;53.55;;;32.88;;
47021;SDS011;32779;52.264;6.154;2024-03-06T04:02:41;53.72;;;34.13;;
47021;SDS011;32779;52.264;6.154;2024-03-06T04:05:07;55.35;;;32.03;;
47021;SDS011;32779;52.264;6.154;2024-03-06T04:07:34;53.20;;;33.25;;
47021;SDS011;32779;52.264;6.154;2024-03-06T04:10:00;53.08;;;32.97;;
47021;SDS011;32779;52.264;6.154;2024-03-06T04:12:27;51.10;;;31.77;;
47021;SDS011;32779;52.264;6.154;2024-03-06T04:14:52;51.95;;;32.05;;
47021;SDS011;32779;52.264;6.154;2024-03-06T04:17:18;45.58;;;30.23;;
47021;SDS011;32779;52.264;6.154;2024-03-06T04:19:44;46.45;;;30.27;;
47021;SDS011;32779;52.264;6.154;2024-03-06T04:22:10;51.63;;;31.02;;
47021;SDS011;32779;52.264;6.154;2024-03-06T04:24:35;50.15;;;30.95;;
47021;SDS011;32779;52.264;6.154;2024-03-06T04:27:01;48.15;;;30.20;;
47021;SDS011;32779;52.264;6.154;2024-03-06T04:29:26;46.53;;;30.42;;
47021;SDS011;32779;52.264;6.154;2024-03-06T04:31:52;42.97;;;28.30;;
47021;SDS011;32779;52.264;6.154;2024-03-06T04:34:17;46.42;;;29.27;;
47021;SDS011;32779;52.264;6.154;2024-03-06T04:36:44;41.97;;;27.63;;
47021;SDS011;32779;52.264;6.154;2024-03-06T04:39:10;45.20;;;29.80;;
47021;SDS011;32779;52.264;6.154;2024-03-06T04:41:37;51.60;;;30.38;;
47021;SDS011;32779;52.264;6.154;2024-03-06T04:44:02;44.33;;;29.52;;
47021;SDS011;32779;52.264;6.154;2024-03-06T04:46:28;44.63;;;28.92;;
47021;SDS011;32779;52.264;6.154;2024-03-06T04:48:54;51.28;;;30.38;;
47021;SDS011;32779;52.264;6.154;2024-03-06T04:51:19;44.67;;;29.02;;
47021;SDS011;32779;52.264;6.154;2024-03-06T04:53:45;43.08;;;28.60;;
47021;SDS011;32779;52.264;6.154;2024-03-06T04:56:11;46.53;;;29.92;;
47021;SDS011;32779;52.264;6.154;2024-03-06T04:58:37;47.30;;;29.88;;
47021;SDS011;32779;52.264;6.154;2024-03-06T05:01:03;43.80;;;28.38;;
47021;SDS011;32779;52.264;6.154;2024-03-06T05:03:29;43.78;;;28.85;;
47021;SDS011;32779;52.264;6.154;2024-03-06T05:05:54;47.70;;;30.27;;
47021;SDS011;32779;52.264;6.154;2024-03-06T05:08:20;44.63;;;29.63;;
47021;SDS011;32779;52.264;6.154;2024-03-06T05:10:46;46.67;;;29.92;;
47021;SDS011;32779;52.264;6.154;2024-03-06T05:13:11;43.80;;;28.58;;
47021;SDS011;32779;52.264;6.154;2024-03-06T05:15:37;47.10;;;30.25;;
47021;SDS011;32779;52.264;6.154;2024-03-06T05:18:04;49.90;;;30.38;;
47021;SDS011;32779;52.264;6.154;2024-03-06T05:20:30;48.05;;;31.25;;
47021;SDS011;32779;52.264;6.154;2024-03-06T05:22:56;53.17;;;29.88;;
47021;SDS011;32779;52.264;6.154;2024-03-06T05:25:22;47.90;;;30.05;;
47021;SDS011;32779;52.264;6.154;2024-03-06T05:27:47;48.60;;;29.73;;
47021;SDS011;32779;52.264;6.154;2024-03-06T05:30:13;45.63;;;28.77;;
47021;SDS011;32779;52.264;6.154;2024-03-06T05:32:39;42.88;;;28.98;;
47021;SDS011;32779;52.264;6.154;2024-03-06T05:35:06;40.92;;;26.38;;
47021;SDS011;32779;52.264;6.154;2024-03-06T05:37:34;43.55;;;27.85;;
47021;SDS011;32779;52.264;6.154;2024-03-06T05:40:00;37.38;;;25.13;;
47021;SDS011;32779;52.264;6.154;2024-03-06T05:42:28;38.28;;;24.95;;
47021;SDS011;32779;52.264;6.154;2024-03-06T05:44:55;44.15;;;28.60;;
47021;SDS011;32779;52.264;6.154;2024-03-06T05:47:31;44.00;;;27.90;;
47021;SDS011;32779;52.264;6.154;2024-03-06T05:49:57;49.10;;;27.80;;
47021;SDS011;32779;52.264;6.154;2024-03-06T05:52:22;42.65;;;27.10;;
47021;SDS011;32779;52.264;6.154;2024-03-06T05:54:49;46.17;;;29.45;;
47021;SDS011;32779;52.264;6.154;2024-03-06T05:57:15;44.83;;;29.35;;
47021;SDS011;32779;52.264;6.154;2024-03-06T05:59:41;45.08;;;28.67;;
47021;SDS011;32779;52.264;6.154;2024-03-06T06:02:07;48.28;;;30.15;;
47021;SDS011;32779;52.264;6.154;2024-03-06T06:04:32;51.47;;;29.13;;
47021;SDS011;32779;52.264;6.154;2024-03-06T06:06:58;47.78;;;29.88;;
47021;SDS011;32779;52.264;6.154;2024-03-06T06:09:24;43.97;;;28.60;;
47021;SDS011;32779;52.264;6.154;2024-03-06T06:11:49;48.95;;;31.25;;
47021;SDS011;32779;52.264;6.154;2024-03-06T06:14:15;50.75;;;31.88;;
47021;SDS011;32779;52.264;6.154;2024-03-06T06:16:41;51.47;;;31.40;;
47021;SDS011;32779;52.264;6.154;2024-03-06T06:19:07;67.47;;;34.85;;
47021;SDS011;32779;52.264;6.154;2024-03-06T06:21:33;60.28;;;35.95;;
47021;SDS011;32779;52.264;6.154;2024-03-06T06:24:01;81.57;;;35.75;;
47021;SDS011;32779;52.264;6.154;2024-03-06T06:26:28;72.70;;;34.50;;
47021;SDS011;32779;52.264;6.154;2024-03-06T06:28:54;139.10;;;35.70;;
47021;SDS011;32779;52.264;6.154;2024-03-06T06:31:20;56.95;;;33.47;;
47021;SDS011;32779;52.264;6.154;2024-03-06T06:33:45;100.30;;;34.00;;
47021;SDS011;32779;52.264;6.154;2024-03-06T06:36:12;78.88;;;32.60;;
47021;SDS011;32779;52.264;6.154;2024-03-06T06:38:38;50.47;;;31.52;;
47021;SDS011;32779;52.264;6.154;2024-03-06T06:41:03;77.68;;;33.15;;
47021;SDS011;32779;52.264;6.154;2024-03-06T06:43:29;49.38;;;32.20;;
47021;SDS011;32779;52.264;6.154;2024-03-06T06:45:55;53.83;;;31.35;;
47021;SDS011;32779;52.264;6.154;2024-03-06T06:48:20;60.60;;;32.70;;
47021;SDS011;32779;52.264;6.154;2024-03-06T06:50:46;58.80;;;32.03;;
47021;SDS011;32779;52.264;6.154;2024-03-06T06:55:38;54.85;;;32.97;;
47021;SDS011;32779;52.264;6.154;2024-03-06T06:58:04;50.28;;;32.42;;
47021;SDS011;32779;52.264;6.154;2024-03-06T07:00:30;50.45;;;33.60;;
47021;SDS011;32779;52.264;6.154;2024-03-06T07:02:56;73.32;;;33.45;;
47021;SDS011;32779;52.264;6.154;2024-03-06T07:05:23;65.55;;;34.28;;
47021;SDS011;32779;52.264;6.154;2024-03-06T07:07:49;73.88;;;32.17;;
47021;SDS011;32779;52.264;6.154;2024-03-06T07:10:14;64.15;;;32.28;;
47021;SDS011;32779;52.264;6.154;2024-03-06T07:12:40;56.05;;;32.63;;
47021;SDS011;32779;52.264;6.154;2024-03-06T07:15:06;52.00;;;32.85;;
47021;SDS011;32779;52.264;6.154;2024-03-06T07:17:32;64.90;;;32.17;;
47021;SDS011;32779;52.264;6.154;2024-03-06T07:19:57;76.45;;;34.15;;
47021;SDS011;32779;52.264;6.154;2024-03-06T07:22:23;77.10;;;33.47;;
47021;SDS011;32779;52.264;6.154;2024-03-06T07:24:49;53.63;;;30.92;;
47021;SDS011;32779;52.264;6.154;2024-03-06T07:27:15;129.38;;;32.88;;
47021;SDS011;32779;52.264;6.154;2024-03-06T07:29:41;50.08;;;30.38;;
47021;SDS011;32779;52.264;6.154;2024-03-06T07:32:06;66.38;;;31.90;;
47021;SDS011;32779;52.264;6.154;2024-03-06T07:34:33;53.10;;;32.42;;
47021;SDS011;32779;52.264;6.154;2024-03-06T07:36:59;54.38;;;31.67;;
47021;SDS011;32779;52.264;6.154;2024-03-06T07:39:25;56.13;;;32.72;;
47021;SDS011;32779;52.264;6.154;2024-03-06T07:41:50;52.38;;;32.00;;
47021;SDS011;32779;52.264;6.154;2024-03-06T07:44:16;59.42;;;32.83;;
47021;SDS011;32779;52.264;6.154;2024-03-06T07:46:42;64.72;;;34.63;;
47021;SDS011;32779;52.264;6.154;2024-03-06T07:49:07;59.00;;;33.40;;
47021;SDS011;32779;52.264;6.154;2024-03-06T07:51:33;71.22;;;34.55;;
47021;SDS011;32779;52.264;6.154;2024-03-06T07:54:00;59.30;;;36.10;;
47021;SDS011;32779;52.264;6.154;2024-03-06T07:56:28;78.57;;;36.33;;
47021;SDS011;32779;52.264;6.154;2024-03-06T07:58:54;59.25;;;36.50;;
47021;SDS011;32779;52.264;6.154;2024-03-06T08:01:20;62.80;;;36.55;;
47021;SDS011;32779;52.264;6.154;2024-03-06T08:03:47;58.50;;;34.65;;
47021;SDS011;32779;52.264;6.154;2024-03-06T08:06:12;65.93;;;35.13;;
47021;SDS011;32779;52.264;6.154;2024-03-06T08:08:40;57.08;;;35.35;;
47021;SDS011;32779;52.264;6.154;2024-03-06T08:11:12;54.55;;;34.47;;
47021;SDS011;32779;52.264;6.154;2024-03-06T08:13:38;52.50;;;32.38;;
47021;SDS011;32779;52.264;6.154;2024-03-06T08:16:07;49.10;;;33.72;;
47021;SDS011;32779;52.264;6.154;2024-03-06T08:18:33;55.30;;;32.90;;
47021;SDS011;32779;52.264;6.154;2024-03-06T08:21:00;53.17;;;34.03;;
47021;SDS011;32779;52.264;6.154;2024-03-06T08:23:26;56.00;;;33.33;;
47021;SDS011;32779;52.264;6.154;2024-03-06T08:25:51;56.67;;;34.53;;
47021;SDS011;32779;52.264;6.154;2024-03-06T08:28:20;58.15;;;33.45;;
47021;SDS011;32779;52.264;6.154;2024-03-06T08:30:46;57.42;;;36.20;;
47021;SDS011;32779;52.264;6.154;2024-03-06T08:33:11;58.38;;;35.17;;
47021;SDS011;32779;52.264;6.154;2024-03-06T08:35:37;59.38;;;34.45;;
47021;SDS011;32779;52.264;6.154;2024-03-06T08:38:03;64.40;;;36.45;;
47021;SDS011;32779;52.264;6.154;2024-03-06T08:40:29;63.97;;;36.28;;
47021;SDS011;32779;52.264;6.154;2024-03-06T08:42:55;54.88;;;33.95;;
47021;SDS011;32779;52.264;6.154;2024-03-06T08:45:21;62.70;;;34.72;;
47021;SDS011;32779;52.264;6.154;2024-03-06T08:47:48;59.05;;;34.83;;
47021;SDS011;32779;52.264;6.154;2024-03-06T08:50:14;57.20;;;33.35;;
47021;SDS011;32779;52.264;6.154;2024-03-06T08:52:40;56.67;;;34.10;;
47021;SDS011;32779;52.264;6.154;2024-03-06T08:57:32;62.63;;;36.50;;
47021;SDS011;32779;52.264;6.154;2024-03-06T08:59:59;57.88;;;34.17;;
47021;SDS011;32779;52.264;6.154;2024-03-06T09:02:25;59.95;;;35.67;;
47021;SDS011;32779;52.264;6.154;2024-03-06T09:04:51;59.00;;;34.63;;
47021;SDS011;32779;52.264;6.154;2024-03-06T09:07:17;56.90;;;35.65;;
47021;SDS011;32779;52.264;6.154;2024-03-06T09:09:44;56.28;;;32.92;;
47021;SDS011;32779;52.264;6.154;2024-03-06T09:12:10;59.40;;;34.35;;
47021;SDS011;32779;52.264;6.154;2024-03-06T09:14:36;55.00;;;34.30;;
47021;SDS011;32779;52.264;6.154;2024-03-06T09:17:02;52.80;;;33.47;;
47021;SDS011;32779;52.264;6.154;2024-03-06T09:19:29;54.20;;;32.67;;
47021;SDS011;32779;52.264;6.154;2024-03-06T09:21:55;56.08;;;31.85;;
47021;SDS011;32779;52.264;6.154;2024-03-06T09:24:21;51.42;;;31.98;;
47021;SDS011;32779;52.264;6.154;2024-03-06T09:26:48;52.85;;;31.70;;
47021;SDS011;32779;52.264;6.154;2024-03-06T09:31:40;53.17;;;30.98;;
47021;SDS011;32779;52.264;6.154;2024-03-06T09:34:06;51.35;;;30.50;;
47021;SDS011;32779;52.264;6.154;2024-03-06T09:36:32;50.75;;;30.52;;
47021;SDS011;32779;52.264;6.154;2024-03-06T09:38:58;53.78;;;31.70;;
47021;SDS011;32779;52.264;6.154;2024-03-06T09:41:24;46.13;;;29.70;;
47021;SDS011;32779;52.264;6.154;2024-03-06T09:43:50;52.33;;;31.05;;
47021;SDS011;32779;52.264;6.154;2024-03-06T09:46:15;51.97;;;31.25;;
47021;SDS011;32779;52.264;6.154;2024-03-06T09:48:46;59.13;;;31.65;;
47021;SDS011;32779;52.264;6.154;2024-03-06T09:51:13;49.10;;;30.30;;
47021;SDS011;32779;52.264;6.154;2024-03-06T09:53:39;52.63;;;31.52;;
47021;SDS011;32779;52.264;6.154;2024-03-06T09:56:06;50.85;;;32.05;;
47021;SDS011;32779;52.264;6.154;2024-03-06T09:58:33;49.17;;;30.55;;
47021;SDS011;32779;52.264;6.154;2024-03-06T10:01:00;54.03;;;31.70;;
47021;SDS011;32779;52.264;6.154;2024-03-06T10:03:28;53.90;;;31.13;;
47021;SDS011;32779;52.264;6.154;2024-03-06T10:05:54;51.22;;;30.13;;
47021;SDS011;32779;52.264;6.154;2024-03-06T10:08:20;51.38;;;31.15;;
47021;SDS011;32779;52.264;6.154;2024-03-06T10:10:47;50.95;;;30.48;;
47021;SDS011;32779;52.264;6.154;2024-03-06T10:13:17;47.78;;;29.42;;
47021;SDS011;32779;52.264;6.154;2024-03-06T10:15:56;48.63;;;29.75;;
47021;SDS011;32779;52.264;6.154;2024-03-06T10:18:30;53.80;;;30.88;;
47021;SDS011;32779;52.264;6.154;2024-03-06T10:20:57;50.58;;;30.38;;
47021;SDS011;32779;52.264;6.154;2024-03-06T10:23:23;52.25;;;30.98;;
47021;SDS011;32779;52.264;6.154;2024-03-06T10:25:49;49.42;;;29.60;;
47021;SDS011;32779;52.264;6.154;2024-03-06T10:28:17;56.83;;;30.85;;
47021;SDS011;32779;52.264;6.154;2024-03-06T10:30:44;48.20;;;30.42;;
47021;SDS011;32779;52.264;6.154;2024-03-06T10:33:14;47.38;;;28.80;;
47021;SDS011;32779;52.264;6.154;2024-03-06T10:35:41;46.05;;;28.27;;
47021;SDS011;32779;52.264;6.154;2024-03-06T10:38:08;45.65;;;28.70;;
47021;SDS011;32779;52.264;6.154;2024-03-06T10:40:36;46.20;;;29.08;;
47021;SDS011;32779;52.264;6.154;2024-03-06T10:43:04;47.20;;;28.85;;
47021;SDS011;32779;52.264;6.154;2024-03-06T10:45:40;42.67;;;28.20;;
47021;SDS011;32779;52.264;6.154;2024-03-06T10:48:13;43.88;;;28.40;;
47021;SDS011;32779;52.264;6.154;2024-03-06T10:50:40;43.53;;;27.15;;
47021;SDS011;32779;52.264;6.154;2024-03-06T10:53:09;40.28;;;26.15;;
47021;SDS011;32779;52.264;6.154;2024-03-06T10:55:35;45.60;;;27.73;;
47021;SDS011;32779;52.264;6.154;2024-03-06T10:58:02;44.00;;;27.08;;
47021;SDS011;32779;52.264;6.154;2024-03-06T11:00:33;44.13;;;28.52;;
47021;SDS011;32779;52.264;6.154;2024-03-06T11:03:00;39.72;;;25.52;;
47021;SDS011;32779;52.264;6.154;2024-03-06T11:05:31;39.78;;;25.02;;
47021;SDS011;32779;52.264;6.154;2024-03-06T11:07:57;42.63;;;25.05;;
47021;SDS011;32779;52.264;6.154;2024-03-06T11:10:33;36.50;;;25.05;;
47021;SDS011;32779;52.264;6.154;2024-03-06T11:13:00;43.03;;;26.83;;
47021;SDS011;32779;52.264;6.154;2024-03-06T11:15:26;39.30;;;26.75;;
47021;SDS011;32779;52.264;6.154;2024-03-06T11:17:52;41.58;;;25.45;;
47021;SDS011;32779;52.264;6.154;2024-03-06T11:20:19;37.95;;;24.23;;
47021;SDS011;32779;52.264;6.154;2024-03-06T11:28:18;38.40;;;25.20;;
47021;SDS011;32779;52.264;6.154;2024-03-06T11:30:45;37.65;;;25.13;;
47021;SDS011;32779;52.264;6.154;2024-03-06T11:33:40;38.92;;;24.20;;
47021;SDS011;32779;52.264;6.154;2024-03-06T11:38:59;37.97;;;24.88;;
47021;SDS011;32779;52.264;6.154;2024-03-06T11:44:15;37.33;;;25.10;;
47021;SDS011;32779;52.264;6.154;2024-03-06T11:46:48;39.95;;;24.85;;
47021;SDS011;32779;52.264;6.154;2024-03-06T11:49:15;36.92;;;23.38;;
47021;SDS011;32779;52.264;6.154;2024-03-06T11:51:52;36.25;;;23.88;;
47021;SDS011;32779;52.264;6.154;2024-03-06T11:54:23;36.97;;;23.15;;
47021;SDS011;32779;52.264;6.154;2024-03-06T11:56:52;31.65;;;21.70;;
47021;SDS011;32779;52.264;6.154;2024-03-06T11:59:26;32.20;;;19.00;;
47021;SDS011;32779;52.264;6.154;2024-03-06T12:01:53;20.58;;;14.20;;
47021;SDS011;32779;52.264;6.154;2024-03-06T12:04:20;22.13;;;14.13;;
47021;SDS011;32779;52.264;6.154;2024-03-06T12:06:47;27.90;;;18.02;;
47021;SDS011;32779;52.264;6.154;2024-03-06T12:11:40;21.17;;;13.85;;
47021;SDS011;32779;52.264;6.154;2024-03-06T12:14:08;21.75;;;14.18;;
47021;SDS011;32779;52.264;6.154;2024-03-06T12:16:43;22.10;;;14.18;;
47021;SDS011;32779;52.264;6.154;2024-03-06T12:19:10;24.05;;;16.52;;
47021;SDS011;32779;52.264;6.154;2024-03-06T12:21:35;25.13;;;17.48;;
47021;SDS011;32779;52.264;6.154;2024-03-06T12:24:12;26.40;;;17.33;;
47021;SDS011;32779;52.264;6.154;2024-03-06T12:26:43;24.42;;;16.27;;
47021;SDS011;32779;52.264;6.154;2024-03-06T12:29:12;24.10;;;16.63;;
47021;SDS011;32779;52.264;6.154;2024-03-06T12:31:41;22.77;;;16.25;;
47021;SDS011;32779;52.264;6.154;2024-03-06T12:34:07;29.40;;;17.98;;
47021;SDS011;32779;52.264;6.154;2024-03-06T12:36:33;26.02;;;17.27;;
47021;SDS011;32779;52.264;6.154;2024-03-06T12:39:01;24.45;;;17.10;;
47021;SDS011;32779;52.264;6.154;2024-03-06T12:41:28;24.73;;;16.65;;
47021;SDS011;32779;52.264;6.154;2024-03-06T12:43:54;25.77;;;16.67;;
47021;SDS011;32779;52.264;6.154;2024-03-06T12:48:47;25.50;;;16.13;;
47021;SDS011;32779;52.264;6.154;2024-03-06T12:51:12;26.38;;;16.83;;
47021;SDS011;32779;52.264;6.154;2024-03-06T12:53:38;25.42;;;16.92;;
47021;SDS011;32779;52.264;6.154;2024-03-06T12:56:05;25.85;;;15.95;;
47021;SDS011;32779;52.264;6.154;2024-03-06T12:58:31;28.77;;;18.73;;
47021;SDS011;32779;52.264;6.154;2024-03-06T13:00:57;29.55;;;19.17;;
47021;SDS011;32779;52.264;6.154;2024-03-06T13:03:22;32.45;;;20.27;;
47021;SDS011;32779;52.264;6.154;2024-03-06T13:05:48;29.90;;;19.95;;
47021;SDS011;32779;52.264;6.154;2024-03-06T13:08:14;31.27;;;20.23;;
47021;SDS011;32779;52.264;6.154;2024-03-06T13:10:40;29.10;;;20.38;;
47021;SDS011;32779;52.264;6.154;2024-03-06T13:13:06;28.77;;;20.17;;
47021;SDS011;32779;52.264;6.154;2024-03-06T13:15:32;31.77;;;21.15;;
47021;SDS011;32779;52.264;6.154;2024-03-06T13:18:01;37.05;;;23.80;;
47021;SDS011;32779;52.264;6.154;2024-03-06T13:20:28;33.15;;;21.08;;
47021;SDS011;32779;52.264;6.154;2024-03-06T13:22:58;33.03;;;22.13;;
47021;SDS011;32779;52.264;6.154;2024-03-06T13:25:23;32.83;;;21.50;;
47021;SDS011;32779;52.264;6.154;2024-03-06T13:27:50;35.17;;;22.15;;
47021;SDS011;32779;52.264;6.154;2024-03-06T13:30:19;34.83;;;22.50;;
47021;SDS011;32779;52.264;6.154;2024-03-06T13:32:45;34.30;;;21.98;;
47021;SDS011;32779;52.264;6.154;2024-03-06T13:35:12;30.85;;;21.05;;
47021;SDS011;32779;52.264;6.154;2024-03-06T13:37:41;29.17;;;20.90;;
47021;SDS011;32779;52.264;6.154;2024-03-06T13:40:11;29.55;;;20.38;;
47021;SDS011;32779;52.264;6.154;2024-03-06T13:42:38;30.73;;;20.27;;
47021;SDS011;32779;52.264;6.154;2024-03-06T13:45:05;29.42;;;19.75;;
47021;SDS011;32779;52.264;6.154;2024-03-06T13:47:36;32.40;;;19.98;;
47021;SDS011;32779;52.264;6.154;2024-03-06T13:50:05;29.10;;;20.17;;
47021;SDS011;32779;52.264;6.154;2024-03-06T13:52:34;32.33;;;19.98;;
47021;SDS011;32779;52.264;6.154;2024-03-06T13:55:00;32.15;;;20.63;;
47021;SDS011;32779;52.264;6.154;2024-03-06T13:57:27;30.38;;;19.83;;
47021;SDS011;32779;52.264;6.154;2024-03-06T13:59:53;29.10;;;20.27;;
47021;SDS011;32779;52.264;6.154;2024-03-06T14:02:19;32.25;;;20.70;;
47021;SDS011;32779;52.264;6.154;2024-03-06T14:04:45;29.95;;;20.83;;
47021;SDS011;32779;52.264;6.154;2024-03-06T14:07:10;30.23;;;19.67;;
47021;SDS011;32779;52.264;6.154;2024-03-06T14:09:36;39.47;;;18.63;;
47021;SDS011;32779;52.264;6.154;2024-03-06T14:14:28;26.00;;;17.48;;
47021;SDS011;32779;52.264;6.154;2024-03-06T14:16:53;28.40;;;18.90;;
47021;SDS011;32779;52.264;6.154;2024-03-06T14:19:19;29.58;;;19.25;;
47021;SDS011;32779;52.264;6.154;2024-03-06T14:21:46;30.38;;;20.08;;
47021;SDS011;32779;52.264;6.154;2024-03-06T14:24:12;30.50;;;20.27;;
47021;SDS011;32779;52.264;6.154;2024-03-06T14:26:38;33.10;;;21.52;;
47021;SDS011;32779;52.264;6.154;2024-03-06T14:29:05;36.65;;;23.25;;
47021;SDS011;32779;52.264;6.154;2024-03-06T14:31:32;34.20;;;22.77;;
47021;SDS011;32779;52.264;6.154;2024-03-06T14:33:59;33.08;;;22.88;;
47021;SDS011;32779;52.264;6.154;2024-03-06T14:36:25;36.67;;;23.27;;
47021;SDS011;32779;52.264;6.154;2024-03-06T14:38:51;37.40;;;23.75;;
47021;SDS011;32779;52.264;6.154;2024-03-06T14:41:20;39.58;;;23.92;;
47021;SDS011;32779;52.264;6.154;2024-03-06T14:43:45;35.72;;;23.90;;
47021;SDS011;32779;52.264;6.154;2024-03-06T14:48:37;34.15;;;23.05;;
47021;SDS011;32779;52.264;6.154;2024-03-06T14:51:04;35.28;;;23.50;;